createdAt,value
2022-12-20T00:49:55.705Z,76.45
2022-12-20T00:52:22.284Z,75.59
2022-12-20T00:54:48.842Z,74.25
2022-12-20T00:57:15.408Z,76.52
2022-12-20T00:59:42.041Z,77.12
2022-12-20T01:24:21.280Z,74.98
2022-12-20T01:26:48.185Z,76.92
2022-12-20T01:29:15.342Z,77.87
2022-12-20T01:35:57.641Z,75.97
2022-12-20T01:38:24.530Z,74.64
2022-12-20T01:55:47.974Z,73.50
2022-12-20T01:58:18.784Z,74.84
2022-12-20T02:01:16.200Z,75.56
2022-12-20T02:04:43.534Z,73.33
2022-12-20T02:07:17.529Z,72.82
2022-12-20T02:09:44.998Z,73.30
2022-12-20T02:12:13.238Z,72.83
2022-12-20T02:15:04.615Z,71.20
2022-12-20T02:17:31.130Z,71.80
2022-12-20T02:20:57.588Z,70.84
2022-12-20T02:23:36.269Z,73.05
2022-12-20T02:26:02.755Z,71.64
2022-12-20T02:28:50.793Z,72.44
2022-12-20T02:35:24.048Z,73.06
2022-12-20T02:43:42.233Z,75.01
2022-12-20T02:46:11.655Z,75.24
2022-12-20T02:48:39.641Z,74.93
2022-12-20T03:26:21.567Z,74.04
2022-12-20T03:28:48.161Z,72.41
2022-12-20T03:31:15.399Z,74.19
2022-12-20T03:33:42.413Z,73.25
2022-12-20T03:36:09.137Z,73.95
2022-12-20T03:38:35.740Z,73.21
2022-12-20T03:45:15.976Z,74.88
2022-12-20T03:48:02.544Z,74.26
2022-12-20T03:50:29.762Z,72.71
2022-12-20T03:52:56.414Z,72.20
2022-12-20T03:55:23.311Z,71.40
2022-12-20T04:17:25.732Z,71.44
2022-12-20T04:19:52.293Z,71.29
2022-12-20T04:22:18.920Z,71.71
2022-12-20T04:29:23.196Z,71.55
2022-12-20T04:31:49.836Z,71.48
2022-12-20T04:34:36.367Z,72.79
2022-12-20T04:37:03.009Z,71.52
2022-12-20T04:39:34.544Z,71.12
2022-12-20T04:42:21.163Z,71.33
2022-12-20T05:44:30.795Z,72.53
2022-12-20T05:46:57.388Z,70.55
2022-12-20T05:49:24.076Z,71.03
2022-12-20T05:51:50.642Z,72.54
2022-12-20T05:54:17.225Z,73.76
2022-12-20T05:56:43.811Z,72.50
2022-12-20T05:59:10.414Z,73.04
2022-12-20T06:01:37.219Z,73.02
2022-12-20T06:04:04.193Z,74.45
2022-12-20T06:06:30.931Z,73.08
2022-12-20T06:08:57.580Z,74.05
2022-12-20T06:11:29.620Z,76.35
2022-12-20T06:13:57.036Z,75.65
2022-12-20T06:16:23.764Z,73.25
2022-12-20T06:18:50.421Z,74.52
2022-12-20T06:21:16.962Z,75.55
2022-12-20T06:23:43.565Z,74.35
2022-12-20T06:26:10.211Z,73.52
2022-12-20T06:28:42.700Z,73.31
2022-12-20T06:31:11.163Z,73.36
2022-12-20T06:33:38.042Z,72.94
2022-12-20T06:36:05.063Z,72.58
2022-12-20T06:38:31.719Z,72.45
2022-12-20T06:40:58.426Z,71.36
2022-12-20T06:43:25.133Z,74.34
2022-12-20T06:45:51.904Z,73.52
2022-12-20T06:48:18.584Z,72.66
2022-12-20T06:50:48.061Z,72.70
2022-12-20T06:53:18.762Z,72.67
2022-12-20T06:55:47.735Z,73.04
2022-12-20T06:58:14.347Z,71.68
2022-12-20T07:00:40.905Z,71.83
2022-12-20T07:03:07.752Z,72.94
2022-12-20T07:05:34.495Z,73.29
2022-12-20T07:08:02.849Z,73.74
2022-12-20T07:10:29.471Z,72.64
2022-12-20T07:12:56.285Z,72.94
2022-12-20T07:15:22.936Z,72.10
2022-12-20T07:17:49.543Z,72.81
2022-12-20T07:20:16.776Z,73.02
2022-12-20T07:22:43.784Z,72.19
2022-12-20T07:25:11.113Z,71.89
2022-12-20T07:27:37.784Z,72.78
2022-12-20T07:30:05.234Z,73.06
2022-12-20T07:32:32.192Z,73.27
2022-12-20T07:34:59.126Z,72.55
2022-12-20T07:37:25.802Z,74.38
2022-12-20T07:39:52.407Z,73.87
2022-12-20T07:42:18.979Z,73.12
2022-12-20T07:44:45.570Z,73.15
2022-12-20T07:47:12.132Z,72.87
2022-12-20T07:49:38.950Z,72.79
2022-12-20T07:52:08.511Z,71.85
2022-12-20T07:54:38.205Z,71.98
2022-12-20T07:57:12.527Z,71.20
2022-12-20T07:59:46.833Z,70.37
2022-12-20T08:02:20.699Z,69.96
2022-12-20T08:04:48.337Z,71.03
2022-12-20T08:07:14.999Z,71.73
2022-12-20T08:09:44.229Z,70.77
2022-12-20T08:12:15.925Z,69.42
2022-12-20T08:14:43.092Z,69.62
2022-12-20T08:17:10.271Z,69.98
2022-12-20T08:19:36.898Z,71.31
2022-12-20T08:22:03.863Z,71.34
2022-12-20T08:27:05.698Z,71.75
2022-12-20T08:29:32.265Z,71.15
2022-12-20T08:32:10.809Z,71.82
2022-12-20T08:34:37.432Z,71.29
2022-12-20T08:37:07.804Z,71.61
2022-12-20T10:19:52.434Z,65.50
2022-12-20T10:22:22.436Z,64.81
2022-12-20T10:25:24.044Z,64.35
2022-12-20T10:27:55.343Z,64.72
2022-12-20T10:30:27.613Z,66.09
2022-12-20T10:37:01.485Z,65.70
2022-12-20T10:57:42.130Z,61.58
2022-12-20T11:00:29.796Z,61.72
2022-12-20T11:05:31.783Z,60.35
2022-12-20T11:08:38.093Z,59.99
2022-12-20T11:11:43.318Z,60.15
2022-12-20T11:14:15.189Z,59.48
2022-12-20T11:16:45.977Z,59.70
2022-12-20T11:19:38.870Z,61.45
2022-12-20T11:22:53.837Z,61.77
2022-12-20T11:45:14.931Z,60.09
2022-12-20T11:48:09.865Z,59.95
2022-12-20T11:50:42.817Z,59.85
2022-12-20T11:53:53.705Z,61.42
2022-12-20T13:29:23.451Z,60.84
2022-12-20T13:31:54.351Z,62.06
2022-12-20T13:34:55.652Z,61.89
2022-12-20T13:37:29.645Z,60.85
2022-12-20T13:39:57.767Z,61.11
2022-12-20T14:10:29.169Z,61.64
2022-12-20T14:12:56.123Z,62.33
2022-12-20T14:15:25.804Z,60.61
2022-12-20T14:17:52.447Z,61.88
2022-12-20T14:20:50.375Z,62.16
2022-12-20T19:31:37.411Z,75.27
2022-12-20T19:34:10.592Z,74.40
2022-12-20T19:36:40.584Z,73.58
2022-12-20T19:39:12.313Z,73.80
2022-12-20T20:59:49.879Z,71.84
2022-12-20T21:02:16.737Z,72.72
2022-12-20T21:04:59.301Z,70.94
2022-12-20T21:12:56.437Z,70.58
2022-12-20T21:15:27.768Z,71.28
2022-12-20T21:18:01.348Z,71.85
2022-12-20T21:20:27.904Z,73.15
2022-12-20T21:22:55.157Z,71.76
2022-12-20T21:25:21.795Z,73.61
2022-12-20T21:27:50.721Z,73.29
2022-12-20T21:30:21.181Z,72.96
2022-12-20T21:44:38.915Z,73.33
2022-12-20T21:52:16.232Z,73.41
2022-12-20T21:54:43.236Z,73.45
2022-12-20T21:57:11.001Z,75.90
2022-12-20T21:59:38.132Z,75.80
2022-12-20T22:02:05.433Z,75.23
2022-12-20T22:07:07.490Z,74.13
2022-12-20T22:09:37.031Z,74.87
2022-12-20T22:12:25.222Z,76.41
2022-12-20T22:14:51.782Z,75.24
2022-12-20T22:17:40.333Z,74.66
2022-12-20T22:20:24.803Z,73.08
2022-12-20T22:25:36.481Z,73.45
2022-12-20T22:30:58.937Z,71.01
2022-12-20T22:36:01.206Z,70.43
2022-12-20T22:41:30.308Z,73.53
2022-12-20T22:46:32.784Z,70.71
2022-12-20T22:54:41.575Z,72.32
2022-12-20T22:59:50.032Z,71.25
2022-12-20T23:02:16.936Z,70.45
2022-12-20T23:05:09.166Z,71.08
2022-12-20T23:07:35.836Z,70.09
2022-12-20T23:10:02.483Z,71.41
2022-12-20T23:12:50.857Z,71.36
2022-12-20T23:15:36.116Z,71.64
2022-12-20T23:28:37.041Z,69.91
2022-12-20T23:31:04.980Z,70.28
2022-12-20T23:37:02.785Z,68.70
2022-12-20T23:39:29.332Z,69.17
2022-12-20T23:41:55.889Z,72.26
2022-12-20T23:44:22.539Z,73.23
2022-12-20T23:46:49.120Z,73.10
2022-12-20T23:49:15.829Z,73.03
2022-12-20T23:54:21.627Z,71.78
2022-12-20T23:56:48.845Z,70.97
2022-12-20T23:59:15.678Z,70.62
